sensor_id;sensor_type;location;lat;lon;timestamp;pressure;altitude;pressure_sealevel;temperature;humidity
82375;BME280;72005;50.496;15.798;2023-09-19T00:00:23;95153.06;;;19.02;78.08
82375;BME280;72005;50.496;15.798;2023-09-19T00:03:11;95148.38;;;18.99;78.20
82375;BME280;72005;50.496;15.798;2023-09-19T00:05:38;95156.69;;;18.97;78.29
82375;BME280;72005;50.496;15.798;2023-09-19T00:08:04;95154.34;;;18.96;77.99
82375;BME280;72005;50.496;15.798;2023-09-19T00:10:31;95151.22;;;18.93;78.20
82375;BME280;72005;50.496;15.798;2023-09-19T00:13:01;95144.97;;;18.89;78.23
82375;BME280;72005;50.496;15.798;2023-09-19T00:15:37;95141.53;;;18.89;78.31
82375;BME280;72005;50.496;15.798;2023-09-19T00:18:04;95139.38;;;18.82;78.13
82375;BME280;72005;50.496;15.798;2023-09-19T00:20:37;95143.75;;;18.78;78.25
82375;BME280;72005;50.496;15.798;2023-09-19T00:23:05;95144.38;;;18.75;78.44
82375;BME280;72005;50.496;15.798;2023-09-19T00:25:30;95148.16;;;18.74;78.26
82375;BME280;72005;50.496;15.798;2023-09-19T00:27:57;95137.50;;;18.74;78.24
82375;BME280;72005;50.496;15.798;2023-09-19T00:30:23;95146.56;;;18.73;78.24
82375;BME280;72005;50.496;15.798;2023-09-19T00:32:50;95139.19;;;18.70;78.16
82375;BME280;72005;50.496;15.798;2023-09-19T00:35:23;95141.41;;;18.68;78.23
82375;BME280;72005;50.496;15.798;2023-09-19T00:37:50;95152.69;;;18.65;78.41
82375;BME280;72005;50.496;15.798;2023-09-19T00:40:16;95149.09;;;18.61;78.23
82375;BME280;72005;50.496;15.798;2023-09-19T00:42:43;95145.66;;;18.60;78.46
82375;BME280;72005;50.496;15.798;2023-09-19T00:45:10;95145.19;;;18.58;78.36
82375;BME280;72005;50.496;15.798;2023-09-19T00:47:55;95150.50;;;18.49;78.48
82375;BME280;72005;50.496;15.798;2023-09-19T00:50:23;95148.34;;;18.52;78.47
82375;BME280;72005;50.496;15.798;2023-09-19T00:52:55;95152.53;;;18.53;78.48
82375;BME280;72005;50.496;15.798;2023-09-19T00:55:24;95144.13;;;18.51;78.80
82375;BME280;72005;50.496;15.798;2023-09-19T00:57:50;95142.53;;;18.49;78.54
82375;BME280;72005;50.496;15.798;2023-09-19T01:00:16;95155.38;;;18.47;78.48
82375;BME280;72005;50.496;15.798;2023-09-19T01:02:46;95155.22;;;18.44;78.50
82375;BME280;72005;50.496;15.798;2023-09-19T01:05:13;95152.56;;;18.44;78.55
82375;BME280;72005;50.496;15.798;2023-09-19T01:07:40;95156.66;;;18.41;78.55
82375;BME280;72005;50.496;15.798;2023-09-19T01:10:14;95158.84;;;18.39;78.62
82375;BME280;72005;50.496;15.798;2023-09-19T01:15:51;95164.66;;;18.33;78.41
82375;BME280;72005;50.496;15.798;2023-09-19T01:21:29;95164.31;;;18.17;78.69
82375;BME280;72005;50.496;15.798;2023-09-19T01:24:39;95169.78;;;18.12;78.80
82375;BME280;72005;50.496;15.798;2023-09-19T01:27:21;95169.66;;;18.17;78.83
82375;BME280;72005;50.496;15.798;2023-09-19T01:29:51;95163.84;;;18.15;78.69
82375;BME280;72005;50.496;15.798;2023-09-19T01:32:18;95158.09;;;18.13;78.94
82375;BME280;72005;50.496;15.798;2023-09-19T01:34:54;95161.97;;;18.15;78.98
82375;BME280;72005;50.496;15.798;2023-09-19T01:37:22;95164.97;;;18.14;79.01
82375;BME280;72005;50.496;15.798;2023-09-19T01:39:55;95164.63;;;18.15;79.28
82375;BME280;72005;50.496;15.798;2023-09-19T01:42:37;95164.03;;;18.10;79.15
82375;BME280;72005;50.496;15.798;2023-09-19T01:45:12;95166.50;;;18.15;79.24
82375;BME280;72005;50.496;15.798;2023-09-19T01:51:05;95149.94;;;18.09;79.26
82375;BME280;72005;50.496;15.798;2023-09-19T01:53:45;95147.91;;;18.15;79.48
82375;BME280;72005;50.496;15.798;2023-09-19T01:56:25;95147.28;;;18.09;79.27
82375;BME280;72005;50.496;15.798;2023-09-19T01:58:57;95156.22;;;18.13;79.01
82375;BME280;72005;50.496;15.798;2023-09-19T02:01:26;95153.06;;;18.11;79.30
82375;BME280;72005;50.496;15.798;2023-09-19T02:03:53;95156.84;;;18.10;79.32
82375;BME280;72005;50.496;15.798;2023-09-19T02:06:19;95157.28;;;18.12;79.40
82375;BME280;72005;50.496;15.798;2023-09-19T02:08:46;95150.75;;;18.10;79.38
82375;BME280;72005;50.496;15.798;2023-09-19T02:11:13;95150.13;;;18.13;79.46
82375;BME280;72005;50.496;15.798;2023-09-19T02:13:39;95147.75;;;18.11;79.53
82375;BME280;72005;50.496;15.798;2023-09-19T02:16:06;95151.53;;;18.10;79.55
82375;BME280;72005;50.496;15.798;2023-09-19T02:18:32;95153.06;;;18.11;79.67
82375;BME280;72005;50.496;15.798;2023-09-19T02:21:01;95153.84;;;18.12;79.53
82375;BME280;72005;50.496;15.798;2023-09-19T02:23:27;95155.44;;;18.13;79.72
82375;BME280;72005;50.496;15.798;2023-09-19T02:25:54;95149.31;;;18.12;79.84
82375;BME280;72005;50.496;15.798;2023-09-19T02:28:20;95159.16;;;18.12;79.52
82375;BME280;72005;50.496;15.798;2023-09-19T02:30:49;95149.31;;;18.12;79.69
82375;BME280;72005;50.496;15.798;2023-09-19T02:33:16;95149.31;;;18.12;79.31
82375;BME280;72005;50.496;15.798;2023-09-19T02:35:42;95154.94;;;18.11;79.28
82375;BME280;72005;50.496;15.798;2023-09-19T02:38:08;95159.50;;;18.10;79.53
82375;BME280;72005;50.496;15.798;2023-09-19T02:40:37;95155.59;;;18.08;79.16
82375;BME280;72005;50.496;15.798;2023-09-19T02:43:03;95149.31;;;18.03;78.92
82375;BME280;72005;50.496;15.798;2023-09-19T02:45:31;95162.31;;;18.05;79.21
82375;BME280;72005;50.496;15.798;2023-09-19T02:47:57;95154.63;;;18.03;79.38
82375;BME280;72005;50.496;15.798;2023-09-19T02:50:23;95153.84;;;18.03;79.15
82375;BME280;72005;50.496;15.798;2023-09-19T02:52:49;95150.41;;;18.02;78.87
82375;BME280;72005;50.496;15.798;2023-09-19T02:55:16;95152.59;;;18.00;79.17
82375;BME280;72005;50.496;15.798;2023-09-19T02:57:50;95154.47;;;18.00;79.15
82375;BME280;72005;50.496;15.798;2023-09-19T03:00:18;95162.59;;;18.03;79.19
82375;BME280;72005;50.496;15.798;2023-09-19T03:02:48;95151.97;;;18.03;79.00
82375;BME280;72005;50.496;15.798;2023-09-19T03:05:14;95150.41;;;18.02;79.11
82375;BME280;72005;50.496;15.798;2023-09-19T03:07:50;95153.22;;;17.97;78.73
82375;BME280;72005;50.496;15.798;2023-09-19T03:10:17;95152.78;;;17.95;78.81
82375;BME280;72005;50.496;15.798;2023-09-19T03:12:43;95144.63;;;17.92;78.76
82375;BME280;72005;50.496;15.798;2023-09-19T03:15:09;95147.91;;;17.89;78.56
82375;BME280;72005;50.496;15.798;2023-09-19T03:17:35;95148.53;;;17.86;78.79
82375;BME280;72005;50.496;15.798;2023-09-19T03:20:02;95148.06;;;17.84;78.74
82375;BME280;72005;50.496;15.798;2023-09-19T03:22:29;95153.06;;;17.85;78.62
82375;BME280;72005;50.496;15.798;2023-09-19T03:24:55;95154.16;;;17.84;78.50
82375;BME280;72005;50.496;15.798;2023-09-19T03:27:21;95155.09;;;17.79;78.56
82375;BME280;72005;50.496;15.798;2023-09-19T03:29:48;95152.25;;;17.76;78.67
82375;BME280;72005;50.496;15.798;2023-09-19T03:32:13;95145.69;;;17.73;78.60
82375;BME280;72005;50.496;15.798;2023-09-19T03:34:39;95150.03;;;17.69;78.55
82375;BME280;72005;50.496;15.798;2023-09-19T03:37:09;95147.22;;;17.66;78.68
82375;BME280;72005;50.496;15.798;2023-09-19T03:39:35;95143.50;;;17.67;78.72
82375;BME280;72005;50.496;15.798;2023-09-19T03:42:02;95139.59;;;17.64;78.66
82375;BME280;72005;50.496;15.798;2023-09-19T03:44:30;95141.75;;;17.62;78.39
82375;BME280;72005;50.496;15.798;2023-09-19T03:46:56;95142.38;;;17.59;78.26
82375;BME280;72005;50.496;15.798;2023-09-19T03:49:22;95146.59;;;17.60;78.39
82375;BME280;72005;50.496;15.798;2023-09-19T03:51:48;95152.50;;;17.48;78.29
82375;BME280;72005;50.496;15.798;2023-09-19T03:54:14;95143.00;;;17.47;78.45
82375;BME280;72005;50.496;15.798;2023-09-19T03:56:40;95153.13;;;17.45;78.67
82375;BME280;72005;50.496;15.798;2023-09-19T03:59:06;95155.31;;;17.43;78.99
82375;BME280;72005;50.496;15.798;2023-09-19T04:01:33;95158.44;;;17.45;79.04
82375;BME280;72005;50.496;15.798;2023-09-19T04:03:59;95159.22;;;17.46;78.98
82375;BME280;72005;50.496;15.798;2023-09-19T04:06:36;95166.13;;;17.47;79.19
82375;BME280;72005;50.496;15.798;2023-09-19T04:09:03;95168.44;;;17.48;79.15
82375;BME280;72005;50.496;15.798;2023-09-19T04:11:29;95175.34;;;17.49;79.35
82375;BME280;72005;50.496;15.798;2023-09-19T04:13:56;95173.75;;;17.48;79.34
82375;BME280;72005;50.496;15.798;2023-09-19T04:16:22;95173.75;;;17.48;79.28
82375;BME280;72005;50.496;15.798;2023-09-19T04:18:48;95178.00;;;17.49;79.41
82375;BME280;72005;50.496;15.798;2023-09-19T04:21:14;95170.47;;;17.51;79.30
82375;BME280;72005;50.496;15.798;2023-09-19T04:23:40;95171.75;;;17.54;79.50
82375;BME280;72005;50.496;15.798;2023-09-19T04:26:05;95164.56;;;17.54;79.32
82375;BME280;72005;50.496;15.798;2023-09-19T04:28:32;95162.38;;;17.56;79.32
82375;BME280;72005;50.496;15.798;2023-09-19T04:31:02;95173.00;;;17.56;79.41
82375;BME280;72005;50.496;15.798;2023-09-19T04:33:28;95174.09;;;17.55;79.34
82375;BME280;72005;50.496;15.798;2023-09-19T04:35:53;95181.59;;;17.53;79.16
82375;BME280;72005;50.496;15.798;2023-09-19T04:38:19;95180.81;;;17.53;79.46
82375;BME280;72005;50.496;15.798;2023-09-19T04:40:46;95175.16;;;17.54;79.47
82375;BME280;72005;50.496;15.798;2023-09-19T04:43:12;95182.53;;;17.57;79.40
82375;BME280;72005;50.496;15.798;2023-09-19T04:45:39;95190.97;;;17.59;79.57
82375;BME280;72005;50.496;15.798;2023-09-19T04:48:06;95184.25;;;17.62;79.14
82375;BME280;72005;50.496;15.798;2023-09-19T04:50:34;95197.25;;;17.64;79.42
82375;BME280;72005;50.496;15.798;2023-09-19T04:53:00;95190.34;;;17.63;79.45
82375;BME280;72005;50.496;15.798;2023-09-19T04:55:26;95191.13;;;17.63;79.54
82375;BME280;72005;50.496;15.798;2023-09-19T04:57:53;95184.75;;;17.64;79.45
82375;BME280;72005;50.496;15.798;2023-09-19T05:00:22;95194.25;;;17.65;79.37
82375;BME280;72005;50.496;15.798;2023-09-19T05:02:55;95197.25;;;17.64;79.32
82375;BME280;72005;50.496;15.798;2023-09-19T05:05:23;95193.50;;;17.65;79.59
82375;BME280;72005;50.496;15.798;2023-09-19T05:07:51;95198.81;;;17.65;79.52
82375;BME280;72005;50.496;15.798;2023-09-19T05:10:18;95201.75;;;17.63;79.48
82375;BME280;72005;50.496;15.798;2023-09-19T05:12:44;95196.16;;;17.65;79.47
82375;BME280;72005;50.496;15.798;2023-09-19T05:15:13;95201.94;;;17.67;79.60
82375;BME280;72005;50.496;15.798;2023-09-19T05:17:51;95210.69;;;17.67;79.46
82375;BME280;72005;50.496;15.798;2023-09-19T05:20:17;95211.94;;;17.70;79.37
82375;BME280;72005;50.496;15.798;2023-09-19T05:23:04;95212.72;;;17.70;79.45
82375;BME280;72005;50.496;15.798;2023-09-19T05:25:33;95218.19;;;17.74;79.53
82375;BME280;72005;50.496;15.798;2023-09-19T05:28:02;95211.78;;;17.75;79.42
82375;BME280;72005;50.496;15.798;2023-09-19T05:30:34;95215.84;;;17.72;79.32
82375;BME280;72005;50.496;15.798;2023-09-19T05:33:09;95209.75;;;17.72;79.47
82375;BME280;72005;50.496;15.798;2023-09-19T05:35:35;95217.41;;;17.73;79.28
82375;BME280;72005;50.496;15.798;2023-09-19T05:38:07;95209.28;;;17.70;79.12
82375;BME280;72005;50.496;15.798;2023-09-19T05:40:38;95208.81;;;17.68;79.06
82375;BME280;72005;50.496;15.798;2023-09-19T05:43:06;95210.34;;;17.69;79.45
82375;BME280;72005;50.496;15.798;2023-09-19T05:45:32;95206.16;;;17.68;79.21
82375;BME280;72005;50.496;15.798;2023-09-19T05:48:07;95205.66;;;17.66;79.07
82375;BME280;72005;50.496;15.798;2023-09-19T05:50:33;95206.63;;;17.70;79.30
82375;BME280;72005;50.496;15.798;2023-09-19T05:52:59;95202.09;;;17.70;79.19
82375;BME280;72005;50.496;15.798;2023-09-19T05:55:26;95202.56;;;17.72;79.23
82375;BME280;72005;50.496;15.798;2023-09-19T05:57:52;95201.63;;;17.77;79.27
82375;BME280;72005;50.496;15.798;2023-09-19T06:00:22;95203.41;;;17.81;79.27
82375;BME280;72005;50.496;15.798;2023-09-19T06:02:55;95203.84;;;17.84;79.20
82375;BME280;72005;50.496;15.798;2023-09-19T06:05:23;95211.03;;;17.83;78.90
82375;BME280;72005;50.496;15.798;2023-09-19T06:07:49;95214.47;;;17.84;79.24
82375;BME280;72005;50.496;15.798;2023-09-19T06:10:15;95212.63;;;17.84;79.14
82375;BME280;72005;50.496;15.798;2023-09-19T06:12:43;95214.19;;;17.85;79.09
82375;BME280;72005;50.496;15.798;2023-09-19T06:15:13;95217.00;;;17.89;78.90
82375;BME280;72005;50.496;15.798;2023-09-19T06:17:52;95222.44;;;17.84;78.53
82375;BME280;72005;50.496;15.798;2023-09-19T06:20:22;95235.44;;;17.85;78.53
82375;BME280;72005;50.496;15.798;2023-09-19T06:22:49;95243.69;;;17.84;78.60
82375;BME280;72005;50.496;15.798;2023-09-19T06:25:15;95237.94;;;17.81;78.88
82375;BME280;72005;50.496;15.798;2023-09-19T06:27:46;95251.03;;;17.78;78.44
82375;BME280;72005;50.496;15.798;2023-09-19T06:30:12;95255.38;;;17.74;78.57
82375;BME280;72005;50.496;15.798;2023-09-19T06:32:40;95257.75;;;17.75;78.62
82375;BME280;72005;50.496;15.798;2023-09-19T06:35:10;95258.53;;;17.76;78.83
82375;BME280;72005;50.496;15.798;2023-09-19T06:37:37;95270.13;;;17.80;78.93
82375;BME280;72005;50.496;15.798;2023-09-19T06:40:10;95272.63;;;17.85;78.86
82375;BME280;72005;50.496;15.798;2023-09-19T06:42:47;95273.41;;;17.86;78.55
82375;BME280;72005;50.496;15.798;2023-09-19T06:45:15;95279.84;;;17.93;78.84
82375;BME280;72005;50.496;15.798;2023-09-19T06:47:50;95285.66;;;17.95;78.61
82375;BME280;72005;50.496;15.798;2023-09-19T06:50:20;95286.09;;;17.97;78.60
82375;BME280;72005;50.496;15.798;2023-09-19T06:52:49;95280.78;;;17.97;78.55
82375;BME280;72005;50.496;15.798;2023-09-19T06:55:18;95287.84;;;18.02;78.58
82375;BME280;72005;50.496;15.798;2023-09-19T06:57:44;95290.19;;;18.03;78.28
82375;BME280;72005;50.496;15.798;2023-09-19T07:00:11;95297.22;;;18.08;78.10
82375;BME280;72005;50.496;15.798;2023-09-19T07:03:19;95296.31;;;18.04;78.29
82375;BME280;72005;50.496;15.798;2023-09-19T07:05:47;95296.47;;;18.16;78.08
82375;BME280;72005;50.496;15.798;2023-09-19T07:08:13;95302.56;;;18.17;78.06
82375;BME280;72005;50.496;15.798;2023-09-19T07:10:40;95316.78;;;18.21;77.97
82375;BME280;72005;50.496;15.798;2023-09-19T07:13:08;95321.47;;;18.24;77.69
82375;BME280;72005;50.496;15.798;2023-09-19T07:15:37;95316.34;;;18.27;77.63
82375;BME280;72005;50.496;15.798;2023-09-19T07:18:14;95315.88;;;18.34;77.66
82375;BME280;72005;50.496;15.798;2023-09-19T07:20:42;95313.56;;;18.41;77.76
82375;BME280;72005;50.496;15.798;2023-09-19T07:23:18;95321.22;;;18.52;77.86
82375;BME280;72005;50.496;15.798;2023-09-19T07:25:44;95324.38;;;18.62;77.46
82375;BME280;72005;50.496;15.798;2023-09-19T07:28:12;95322.47;;;18.71;77.75
82375;BME280;72005;50.496;15.798;2023-09-19T07:30:38;95329.38;;;18.81;77.41
82375;BME280;72005;50.496;15.798;2023-09-19T07:33:05;95333.31;;;18.92;77.40
82375;BME280;72005;50.496;15.798;2023-09-19T07:35:31;95332.22;;;19.02;76.99
82375;BME280;72005;50.496;15.798;2023-09-19T07:37:57;95338.59;;;19.10;76.84
82375;BME280;72005;50.496;15.798;2023-09-19T07:40:27;95321.84;;;19.18;76.19
82375;BME280;72005;50.496;15.798;2023-09-19T07:42:55;95327.94;;;19.27;76.06
82375;BME280;72005;50.496;15.798;2023-09-19T07:45:21;95334.97;;;19.41;75.89
82375;BME280;72005;50.496;15.798;2023-09-19T07:47:49;95346.22;;;19.55;75.36
82375;BME280;72005;50.496;15.798;2023-09-19T07:50:16;95343.97;;;19.74;75.35
82375;BME280;72005;50.496;15.798;2023-09-19T07:52:45;95354.69;;;20.04;75.53
82375;BME280;72005;50.496;15.798;2023-09-19T07:55:11;95355.31;;;20.31;75.11
82375;BME280;72005;50.496;15.798;2023-09-19T07:57:37;95356.94;;;20.53;74.50
82375;BME280;72005;50.496;15.798;2023-09-19T08:00:04;95353.88;;;20.63;73.49
82375;BME280;72005;50.496;15.798;2023-09-19T08:02:36;95357.34;;;20.63;72.71
82375;BME280;72005;50.496;15.798;2023-09-19T08:05:14;95361.13;;;20.62;72.23
82375;BME280;72005;50.496;15.798;2023-09-19T08:07:45;95364.25;;;20.64;72.22
82375;BME280;72005;50.496;15.798;2023-09-19T08:10:14;95362.88;;;20.58;72.13
82375;BME280;72005;50.496;15.798;2023-09-19T08:12:45;95355.69;;;20.50;71.85
82375;BME280;72005;50.496;15.798;2023-09-19T08:15:19;95370.19;;;20.40;71.90
82375;BME280;72005;50.496;15.798;2023-09-19T08:17:48;95360.34;;;20.32;71.53
82375;BME280;72005;50.496;15.798;2023-09-19T08:20:14;95368.88;;;20.25;71.69
82375;BME280;72005;50.496;15.798;2023-09-19T08:22:47;95369.22;;;20.15;71.65
82375;BME280;72005;50.496;15.798;2023-09-19T08:25:15;95368.00;;;20.04;71.75
82375;BME280;72005;50.496;15.798;2023-09-19T08:27:44;95375.44;;;19.90;71.56
82375;BME280;72005;50.496;15.798;2023-09-19T08:30:17;95369.34;;;19.80;72.16
82375;BME280;72005;50.496;15.798;2023-09-19T08:32:43;95371.28;;;19.71;72.15
82375;BME280;72005;50.496;15.798;2023-09-19T08:35:10;95383.00;;;19.70;72.76
82375;BME280;72005;50.496;15.798;2023-09-19T08:37:36;95377.88;;;19.65;72.53
82375;BME280;72005;50.496;15.798;2023-09-19T08:40:01;95384.75;;;19.66;73.07
82375;BME280;72005;50.496;15.798;2023-09-19T08:42:27;95375.66;;;19.67;72.64
82375;BME280;72005;50.496;15.798;2023-09-19T08:44:55;95382.72;;;19.72;72.52
82375;BME280;72005;50.496;15.798;2023-09-19T08:47:34;95382.72;;;19.72;72.62
82375;BME280;72005;50.496;15.798;2023-09-19T08:50:33;95392.88;;;19.78;72.47
82375;BME280;72005;50.496;15.798;2023-09-19T08:53:11;95393.59;;;19.96;72.50
82375;BME280;72005;50.496;15.798;2023-09-19T08:55:41;95388.19;;;20.14;72.33
82375;BME280;72005;50.496;15.798;2023-09-19T08:58:10;95386.41;;;20.26;71.81
82375;BME280;72005;50.496;15.798;2023-09-19T09:00:36;95397.34;;;20.34;71.16
82375;BME280;72005;50.496;15.798;2023-09-19T09:03:04;95396.34;;;20.47;71.14
82375;BME280;72005;50.496;15.798;2023-09-19T09:05:32;95402.72;;;20.63;71.04
82375;BME280;72005;50.496;15.798;2023-09-19T09:08:00;95405.66;;;20.91;70.44
82375;BME280;72005;50.496;15.798;2023-09-19T09:10:28;95405.88;;;21.07;69.10
82375;BME280;72005;50.496;15.798;2023-09-19T09:12:54;95404.47;;;21.22;68.67
82375;BME280;72005;50.496;15.798;2023-09-19T09:15:23;95410.47;;;21.40;68.22
82375;BME280;72005;50.496;15.798;2023-09-19T09:17:52;95409.00;;;21.63;67.79
82375;BME280;72005;50.496;15.798;2023-09-19T09:20:19;95407.03;;;21.73;67.09
82375;BME280;72005;50.496;15.798;2023-09-19T09:22:55;95421.50;;;21.72;65.11
82375;BME280;72005;50.496;15.798;2023-09-19T09:25:47;95423.81;;;21.61;64.12
82375;BME280;72005;50.496;15.798;2023-09-19T09:28:19;95411.44;;;21.56;64.63
82375;BME280;72005;50.496;15.798;2023-09-19T09:30:45;95422.31;;;21.51;64.21
82375;BME280;72005;50.496;15.798;2023-09-19T09:33:12;95416.97;;;21.51;64.50
82375;BME280;72005;50.496;15.798;2023-09-19T09:35:58;95425.19;;;21.46;63.27
82375;BME280;72005;50.496;15.798;2023-09-19T09:38:47;95425.59;;;21.36;63.23
82375;BME280;72005;50.496;15.798;2023-09-19T09:41:36;95423.84;;;21.40;63.80
82375;BME280;72005;50.496;15.798;2023-09-19T09:44:13;95433.03;;;21.51;63.30
82375;BME280;72005;50.496;15.798;2023-09-19T09:46:47;95425.84;;;21.43;62.90
82375;BME280;72005;50.496;15.798;2023-09-19T09:49:27;95435.81;;;21.34;62.40
82375;BME280;72005;50.496;15.798;2023-09-19T09:52:06;95436.28;;;21.36;63.25
82375;BME280;72005;50.496;15.798;2023-09-19T09:55:04;95442.28;;;21.33;63.10
82375;BME280;72005;50.496;15.798;2023-09-19T09:57:31;95439.25;;;21.34;63.50
82375;BME280;72005;50.496;15.798;2023-09-19T09:59:59;95453.13;;;21.36;63.34
82375;BME280;72005;50.496;15.798;2023-09-19T10:02:42;95432.06;;;21.35;63.28
82375;BME280;72005;50.496;15.798;2023-09-19T10:05:14;95439.16;;;21.31;62.52
82375;BME280;72005;50.496;15.798;2023-09-19T10:08:11;95454.13;;;21.23;62.87
82375;BME280;72005;50.496;15.798;2023-09-19T10:10:44;95455.13;;;21.18;63.11
82375;BME280;72005;50.496;15.798;2023-09-19T10:13:20;95456.88;;;21.14;62.75
82375;BME280;72005;50.496;15.798;2023-09-19T10:15:51;95457.50;;;21.11;62.90
82375;BME280;72005;50.496;15.798;2023-09-19T10:18:26;95454.06;;;21.11;62.07
82375;BME280;72005;50.496;15.798;2023-09-19T10:20:53;95455.97;;;21.10;62.54
82375;BME280;72005;50.496;15.798;2023-09-19T10:23:21;95452.84;;;21.29;63.05
82375;BME280;72005;50.496;15.798;2023-09-19T10:25:52;95449.44;;;21.62;63.04
82375;BME280;72005;50.496;15.798;2023-09-19T10:28:19;95444.28;;;21.90;62.57
82375;BME280;72005;50.496;15.798;2023-09-19T10:30:50;95434.50;;;22.06;61.76
82375;BME280;72005;50.496;15.798;2023-09-19T10:33:18;95442.34;;;22.24;60.68
82375;BME280;72005;50.496;15.798;2023-09-19T10:35:48;95446.03;;;22.32;60.90
82375;BME280;72005;50.496;15.798;2023-09-19T10:38:18;95435.34;;;22.44;60.38
82375;BME280;72005;50.496;15.798;2023-09-19T10:40:51;95442.38;;;22.61;60.57
82375;BME280;72005;50.496;15.798;2023-09-19T10:43:19;95436.44;;;22.80;60.62
82375;BME280;72005;50.496;15.798;2023-09-19T10:45:47;95437.56;;;22.91;59.37
82375;BME280;72005;50.496;15.798;2023-09-19T10:48:19;95445.69;;;22.94;59.34
82375;BME280;72005;50.496;15.798;2023-09-19T10:53:29;95437.66;;;23.07;57.72
82375;BME280;72005;50.496;15.798;2023-09-19T10:55:59;95444.59;;;22.95;57.85
82375;BME280;72005;50.496;15.798;2023-09-19T10:58:32;95439.44;;;22.78;57.35
82375;BME280;72005;50.496;15.798;2023-09-19T11:01:04;95445.81;;;22.61;58.71
82375;BME280;72005;50.496;15.798;2023-09-19T11:03:44;95452.63;;;22.46;58.82
82375;BME280;72005;50.496;15.798;2023-09-19T11:06:16;95451.28;;;22.40;59.45
82375;BME280;72005;50.496;15.798;2023-09-19T11:14:16;95433.44;;;22.69;58.77
82375;BME280;72005;50.496;15.798;2023-09-19T11:30:42;95431.88;;;22.56;59.53
82375;BME280;72005;50.496;15.798;2023-09-19T11:33:29;95432.31;;;22.70;59.28
82375;BME280;72005;50.496;15.798;2023-09-19T11:36:16;95438.09;;;22.84;58.40
82375;BME280;72005;50.496;15.798;2023-09-19T11:43:48;95431.41;;;23.03;57.12
82375;BME280;72005;50.496;15.798;2023-09-19T11:46:16;95430.09;;;22.96;56.70
82375;BME280;72005;50.496;15.798;2023-09-19T11:48:50;95430.28;;;22.91;57.07
82375;BME280;72005;50.496;15.798;2023-09-19T11:51:24;95436.78;;;23.03;58.02
82375;BME280;72005;50.496;15.798;2023-09-19T11:53:55;95430.09;;;23.25;58.12
82375;BME280;72005;50.496;15.798;2023-09-19T11:56:23;95432.84;;;23.40;57.24
82375;BME280;72005;50.496;15.798;2023-09-19T11:58:51;95430.91;;;23.53;57.36
82375;BME280;72005;50.496;15.798;2023-09-19T12:01:25;95430.25;;;23.56;56.07
82375;BME280;72005;50.496;15.798;2023-09-19T12:03:54;95438.84;;;23.50;55.92
82375;BME280;72005;50.496;15.798;2023-09-19T12:06:23;95431.16;;;23.48;55.13
82375;BME280;72005;50.496;15.798;2023-09-19T12:08:49;95434.53;;;23.45;55.26
82375;BME280;72005;50.496;15.798;2023-09-19T12:11:17;95439.69;;;23.38;54.27
82375;BME280;72005;50.496;15.798;2023-09-19T12:13:47;95440.50;;;23.26;54.54
82375;BME280;72005;50.496;15.798;2023-09-19T12:16:18;95436.28;;;23.25;55.25
82375;BME280;72005;50.496;15.798;2023-09-19T12:18:48;95441.63;;;23.25;54.97
82375;BME280;72005;50.496;15.798;2023-09-19T12:21:41;95443.34;;;23.05;54.32
82375;BME280;72005;50.496;15.798;2023-09-19T12:24:13;95441.59;;;22.97;54.72
82375;BME280;72005;50.496;15.798;2023-09-19T12:26:46;95443.69;;;22.91;54.50
82375;BME280;72005;50.496;15.798;2023-09-19T12:29:19;95430.88;;;22.97;55.02
82375;BME280;72005;50.496;15.798;2023-09-19T12:34:25;95434.41;;;23.01;54.46
82375;BME280;72005;50.496;15.798;2023-09-19T12:39:53;95439.13;;;22.80;54.31
82375;BME280;72005;50.496;15.798;2023-09-19T12:42:25;95439.25;;;22.71;54.22
82375;BME280;72005;50.496;15.798;2023-09-19T12:44:58;95440.81;;;22.60;54.16
82375;BME280;72005;50.496;15.798;2023-09-19T12:47:27;95442.16;;;22.53;54.60
82375;BME280;72005;50.496;15.798;2023-09-19T12:50:10;95444.59;;;22.46;55.20
82375;BME280;72005;50.496;15.798;2023-09-19T12:52:46;95446.38;;;22.55;55.55
82375;BME280;72005;50.496;15.798;2023-09-19T12:55:29;95446.50;;;22.58;55.46
82375;BME280;72005;50.496;15.798;2023-09-19T12:58:19;95439.81;;;22.64;55.56
82375;BME280;72005;50.496;15.798;2023-09-19T13:00:45;95443.03;;;22.70;55.23
82375;BME280;72005;50.496;15.798;2023-09-19T13:03:15;95431.22;;;22.71;54.70
82375;BME280;72005;50.496;15.798;2023-09-19T13:05:55;95419.28;;;22.68;55.44
82375;BME280;72005;50.496;15.798;2023-09-19T13:08:26;95424.50;;;22.77;55.73
82375;BME280;72005;50.496;15.798;2023-09-19T13:13:43;95415.78;;;22.80;55.24
82375;BME280;72005;50.496;15.798;2023-09-19T13:16:10;95418.94;;;22.82;55.27
82375;BME280;72005;50.496;15.798;2023-09-19T13:18:44;95423.59;;;22.85;55.24
82375;BME280;72005;50.496;15.798;2023-09-19T13:21:12;95418.34;;;22.89;54.88
82375;BME280;72005;50.496;15.798;2023-09-19T13:23:49;95419.81;;;22.86;54.48
82375;BME280;72005;50.496;15.798;2023-09-19T13:26:16;95422.84;;;22.85;54.48
82375;BME280;72005;50.496;15.798;2023-09-19T13:28:41;95412.66;;;22.78;53.78
82375;BME280;72005;50.496;15.798;2023-09-19T13:31:09;95422.97;;;22.76;54.55
82375;BME280;72005;50.496;15.798;2023-09-19T13:33:42;95413.03;;;22.77;54.57
82375;BME280;72005;50.496;15.798;2023-09-19T13:36:09;95413.25;;;22.71;54.46
82375;BME280;72005;50.496;15.798;2023-09-19T13:38:35;95412.91;;;22.61;54.73
82375;BME280;72005;50.496;15.798;2023-09-19T13:41:00;95415.72;;;22.52;54.77
82375;BME280;72005;50.496;15.798;2023-09-19T13:43:27;95407.78;;;22.43;55.27
82375;BME280;72005;50.496;15.798;2023-09-19T13:45:54;95401.56;;;22.39;55.73
82375;BME280;72005;50.496;15.798;2023-09-19T13:48:20;95405.69;;;22.37;55.89
82375;BME280;72005;50.496;15.798;2023-09-19T13:50:48;95412.94;;;22.36;55.43